Time;durP1;ratioP1;P1;durP2;ratioP2;P2;SDS_P1;SDS_P2;PMS_P1;PMS_P2;Temp;Humidity;BMP_temperature;BMP_pressure;BME280_temperature;BME280_humidity;BME280_pressure;Samples;Min_cycle;Max_cycle;Signal;HPM_P1;HPM_P2
2022/07/10 00:00:17;;;;;;;2.73;1.10;;;;;;;23.33;52.00;98523.63;6156386;23;20131;-88
2022/07/10 00:02:43;;;;;;;1.97;1.23;;;;;;;23.24;52.24;98528.22;6156063;23;20135;-88
2022/07/10 00:05:10;;;;;;;3.00;1.37;;;;;;;23.14;52.25;98528.41;6156009;23;20484;-89
2022/07/10 00:07:35;;;;;;;2.23;1.40;;;;;;;23.16;52.09;98530.94;6155923;23;20175;-89
2022/07/10 00:10:02;;;;;;;2.43;1.40;;;;;;;23.05;52.12;98528.63;6156010;23;20163;-86
2022/07/10 00:12:28;;;;;;;2.20;1.30;;;;;;;23.12;52.15;98522.41;6155971;23;20154;-88
2022/07/10 00:14:54;;;;;;;2.53;1.30;;;;;;;23.01;52.68;98513.94;6154803;23;20159;-89
2022/07/10 00:17:19;;;;;;;1.97;0.93;;;;;;;23.12;52.63;98525.09;6155092;23;20162;-88
2022/07/10 00:19:44;;;;;;;1.70;1.20;;;;;;;23.02;52.80;98520.97;6156238;23;20146;-88
2022/07/10 00:22:10;;;;;;;2.37;1.30;;;;;;;22.97;52.77;98517.97;6155869;23;20174;-88
2022/07/10 00:24:35;;;;;;;2.57;1.40;;;;;;;23.05;52.65;98518.78;6155124;23;20159;-87
2022/07/10 00:27:01;;;;;;;1.70;1.00;;;;;;;23.02;52.40;98518.28;6154590;23;20498;-87
2022/07/10 00:29:26;;;;;;;3.07;1.13;;;;;;;22.94;52.42;98515.66;6156587;23;20226;-87
2022/07/10 00:31:52;;;;;;;2.33;1.33;;;;;;;23.01;52.49;98521.94;6155882;23;20568;-88
2022/07/10 00:34:17;;;;;;;3.43;1.90;;;;;;;22.95;52.84;98512.81;6156205;23;20147;-89
2022/07/10 00:36:43;;;;;;;2.80;1.33;;;;;;;22.95;52.66;98511.97;6154970;23;20159;-87
2022/07/10 00:39:10;;;;;;;2.47;1.23;;;;;;;23.05;52.57;98523.28;6155669;23;20175;-86
2022/07/10 00:41:35;;;;;;;3.60;1.80;;;;;;;22.98;52.62;98519.66;6155792;23;20220;-88
2022/07/10 00:44:02;;;;;;;2.57;1.20;;;;;;;23.06;52.54;98515.06;6155810;23;20569;-87
2022/07/10 00:46:29;;;;;;;2.20;1.33;;;;;;;22.81;53.30;98518.03;6154451;23;20200;-88
2022/07/10 00:48:55;;;;;;;3.60;1.77;;;;;;;23.00;52.44;98512.28;6154486;23;20615;-88
2022/07/10 00:51:24;;;;;;;4.07;1.57;;;;;;;23.09;52.22;98513.91;6155740;23;20178;-87
2022/07/10 00:53:50;;;;;;;2.40;1.50;;;;;;;22.88;53.19;98513.66;6154572;23;20182;-87
2022/07/10 00:56:17;;;;;;;2.53;1.50;;;;;;;22.94;52.59;98508.47;6154534;23;20159;-86
2022/07/10 00:58:44;;;;;;;2.87;1.67;;;;;;;22.89;53.09;98518.00;6155192;23;20214;-89
2022/07/10 01:01:09;;;;;;;2.50;1.27;;;;;;;22.69;53.66;98503.41;6154530;23;20217;-87
2022/07/10 01:03:35;;;;;;;2.73;1.60;;;;;;;22.73;53.46;98510.88;6155680;23;20586;-88
2022/07/10 01:06:00;;;;;;;4.47;1.80;;;;;;;22.57;54.41;98513.56;6155680;23;20625;-87
2022/07/10 01:08:27;;;;;;;5.60;1.80;;;;;;;22.53;54.79;98510.44;6154506;23;20611;-87
2022/07/10 01:10:53;;;;;;;2.73;1.47;;;;;;;22.68;53.89;98513.25;6154846;23;20152;-89
2022/07/10 01:13:19;;;;;;;2.57;1.40;;;;;;;22.59;54.20;98508.88;6155990;23;20158;-88
2022/07/10 01:15:46;;;;;;;2.93;1.83;;;;;;;22.61;54.19;98513.03;6154508;23;20158;-87
2022/07/10 01:18:13;;;;;;;4.57;1.37;;;;;;;22.78;54.13;98507.69;6156796;23;20555;-86
2022/07/10 01:20:38;;;;;;;2.73;1.20;;;;;;;22.68;54.31;98505.22;6156238;23;20151;-86
2022/07/10 01:23:04;;;;;;;3.67;1.83;;;;;;;22.77;54.21;98506.03;6156197;23;20157;-87
2022/07/10 01:25:29;;;;;;;3.87;1.93;;;;;;;22.86;53.99;98503.16;6156268;23;20155;-87
2022/07/10 01:27:55;;;;;;;3.07;1.80;;;;;;;22.72;54.03;98506.53;6157290;23;20281;-88
2022/07/10 01:30:20;;;;;;;6.40;1.60;;;;;;;22.76;54.15;98512.38;6157381;23;20234;-87
2022/07/10 01:32:46;;;;;;;3.07;1.83;;;;;;;22.58;54.73;98502.72;6156539;23;20163;-86
2022/07/10 01:35:13;;;;;;;4.70;2.00;;;;;;;22.60;54.72;98498.03;6156115;23;20217;-88
2022/07/10 01:37:40;;;;;;;2.83;1.63;;;;;;;22.75;54.42;98502.69;6156292;23;20468;-89
2022/07/10 01:40:08;;;;;;;4.63;1.97;;;;;;;22.75;54.21;98500.84;6157264;23;20547;-87
2022/07/10 01:42:33;;;;;;;2.87;1.60;;;;;;;22.75;54.38;98494.66;6157287;23;20147;-89
2022/07/10 01:44:59;;;;;;;3.97;2.20;;;;;;;22.78;54.36;98489.81;6157598;23;20155;-87
2022/07/10 01:47:25;;;;;;;3.10;1.57;;;;;;;22.63;54.90;98487.03;6157457;23;20214;-88
2022/07/10 01:49:54;;;;;;;3.07;1.93;;;;;;;22.70;54.46;98484.50;6157228;23;20147;-88
2022/07/10 01:52:20;;;;;;;5.70;1.60;;;;;;;22.66;54.57;98490.38;6155983;23;20155;-88
2022/07/10 01:54:47;;;;;;;3.77;2.07;;;;;;;22.67;55.01;98489.38;6155962;23;20166;-87
2022/07/10 01:57:13;;;;;;;3.50;1.83;;;;;;;22.54;55.15;98496.03;6157092;23;20158;-87
2022/07/10 01:59:39;;;;;;;5.27;2.20;;;;;;;22.51;55.20;98491.03;6157459;23;20147;-88
2022/07/10 02:02:05;;;;;;;3.47;1.67;;;;;;;22.57;55.15;98485.03;6155901;23;20464;-87
2022/07/10 02:04:42;;;;;;;4.33;2.23;;;;;;;22.60;54.84;98487.34;6156204;23;20159;-89
2022/07/10 02:07:09;;;;;;;3.20;1.70;;;;;;;22.55;54.96;98484.38;6157286;23;20257;-87
2022/07/10 02:09:35;;;;;;;4.43;2.47;;;;;;;22.62;54.66;98480.03;6157348;23;20147;-87
2022/07/10 02:12:00;;;;;;;3.93;2.27;;;;;;;22.53;54.99;98490.88;6156182;23;20297;-87
2022/07/10 02:14:26;;;;;;;4.43;2.33;;;;;;;22.64;54.46;98486.03;6155772;23;20637;-88
2022/07/10 02:16:52;;;;;;;4.77;2.00;;;;;;;22.78;54.14;98476.47;6156055;23;20177;-88
2022/07/10 02:19:17;;;;;;;3.53;1.97;;;;;;;22.72;54.42;98473.66;6157237;23;20147;-86
2022/07/10 02:21:43;;;;;;;2.80;1.80;;;;;;;22.66;54.66;98467.16;6156829;23;20161;-88
2022/07/10 02:24:09;;;;;;;3.50;1.97;;;;;;;22.78;54.03;98484.47;6155644;23;20178;-87
2022/07/10 02:26:34;;;;;;;3.53;1.90;;;;;;;22.71;54.53;98482.66;6155658;23;20234;-87
2022/07/10 02:29:00;;;;;;;3.13;1.70;;;;;;;22.58;54.70;98481.34;6156404;23;20187;-87
2022/07/10 02:31:25;;;;;;;5.47;2.17;;;;;;;22.48;55.04;98487.91;6155554;23;20155;-88
2022/07/10 02:33:51;;;;;;;8.37;2.40;;;;;;;22.41;55.51;98477.06;6156717;23;20233;-88
2022/07/10 02:36:16;;;;;;;4.10;2.20;;;;;;;22.47;55.12;98481.72;6156583;23;20158;-88
2022/07/10 02:38:42;;;;;;;4.47;1.90;;;;;;;22.34;55.61;98483.25;6155558;23;20593;-87
2022/07/10 02:41:07;;;;;;;3.50;2.37;;;;;;;22.12;56.67;98484.78;6157041;23;20151;-87
2022/07/10 02:43:33;;;;;;;3.07;2.17;;;;;;;22.02;56.98;98482.31;6155519;23;20566;-86
2022/07/10 02:45:58;;;;;;;3.53;2.17;;;;;;;22.24;56.00;98479.94;6156604;23;20218;-86
2022/07/10 02:48:24;;;;;;;4.00;2.33;;;;;;;21.96;57.28;98490.97;6157581;23;20185;-87
2022/07/10 02:50:49;;;;;;;6.07;2.27;;;;;;;22.04;57.10;98484.78;6155438;23;20163;-86
2022/07/10 02:53:15;;;;;;;4.70;2.00;;;;;;;21.99;57.38;98481.78;6156879;23;20468;-88
2022/07/10 02:55:40;;;;;;;3.33;2.00;;;;;;;21.93;57.77;98471.81;6155342;23;20177;-87
2022/07/10 02:58:06;;;;;;;6.27;2.60;;;;;;;22.01;57.64;98469.16;6155276;23;20241;-87
2022/07/10 03:00:31;;;;;;;4.63;2.40;;;;;;;21.67;58.16;98477.25;6155305;23;20222;-88
2022/07/10 03:02:57;;;;;;;4.97;2.47;;;;;;;21.73;58.23;98478.44;6156750;23;20156;-87
2022/07/10 03:05:23;;;;;;;4.23;2.43;;;;;;;21.60;58.96;98486.09;6155655;23;20645;-87
2022/07/10 03:07:48;;;;;;;4.40;2.40;;;;;;;21.62;58.56;98486.78;6156673;23;20595;-88
2022/07/10 03:10:13;;;;;;;4.37;2.27;;;;;;;21.61;58.64;98485.13;6156693;23;20154;-89
2022/07/10 03:12:39;;;;;;;5.73;2.47;;;;;;;21.68;58.87;98486.13;6155553;23;20229;-87
2022/07/10 03:15:05;;;;;;;4.17;2.47;;;;;;;21.85;58.30;98490.47;6157020;23;20226;-87
2022/07/10 03:17:31;;;;;;;5.93;2.77;;;;;;;21.77;58.15;98498.47;6157002;23;20151;-87
2022/07/10 03:19:56;;;;;;;4.33;2.37;;;;;;;21.78;58.29;98500.13;6156339;23;20151;-87
2022/07/10 03:22:22;;;;;;;5.70;2.87;;;;;;;21.63;58.84;98496.44;6155134;23;20159;-87
2022/07/10 03:24:48;;;;;;;4.73;2.53;;;;;;;21.64;58.91;98503.47;6155119;23;20213;-89
2022/07/10 03:27:14;;;;;;;5.47;3.10;;;;;;;21.64;58.96;98506.97;6154977;23;20183;-89
2022/07/10 03:29:40;;;;;;;4.87;2.97;;;;;;;21.67;58.70;98508.47;6155370;23;20169;-87
2022/07/10 03:32:06;;;;;;;5.97;3.33;;;;;;;21.85;58.34;98501.13;6156537;23;20210;-87
2022/07/10 03:34:33;;;;;;;3.80;2.17;;;;;;;21.74;58.71;98504.13;6156521;23;20158;-88
2022/07/10 03:37:00;;;;;;;4.37;2.77;;;;;;;21.86;58.70;98497.47;6154723;23;20151;-88
2022/07/10 03:39:26;;;;;;;4.90;3.07;;;;;;;21.77;58.30;98493.13;6156364;23;20566;-90
2022/07/10 03:41:52;;;;;;;5.33;2.77;;;;;;;21.58;58.83;98509.44;6154847;23;20165;-87
2022/07/10 03:44:17;;;;;;;3.90;2.23;;;;;;;21.66;58.76;98502.28;6156784;23;20230;-88
2022/07/10 03:46:43;;;;;;;11.33;3.13;;;;;;;21.66;59.08;98509.47;6156086;23;20566;-87
2022/07/10 03:49:08;;;;;;;10.80;2.80;;;;;;;21.94;58.36;98505.50;6156112;23;20599;-87
2022/07/10 03:51:33;;;;;;;4.83;2.17;;;;;;;21.77;58.94;98504.63;6154926;23;20238;-89
2022/07/10 03:53:59;;;;;;;3.03;2.00;;;;;;;21.77;59.21;98511.81;6156432;23;20229;-88
2022/07/10 03:59:08;;;;;;;5.17;3.23;;;;;;;21.97;58.83;98511.34;6156430;23;20157;-88
2022/07/10 04:01:34;;;;;;;3.83;2.33;;;;;;;21.96;58.93;98516.81;6156306;23;20566;-90
2022/07/10 04:03:59;;;;;;;3.17;2.07;;;;;;;21.95;58.70;98517.84;6155993;23;20238;-87
2022/07/10 04:06:24;;;;;;;4.70;2.23;;;;;;;22.19;58.29;98515.16;6155970;23;20158;-88
2022/07/10 04:08:50;;;;;;;6.00;2.67;;;;;;;22.18;58.18;98512.66;6156510;23;20174;-89
2022/07/10 04:11:15;;;;;;;5.63;2.73;;;;;;;22.20;58.22;98521.31;6156271;23;20147;-88
2022/07/10 04:13:41;;;;;;;5.10;2.70;;;;;;;22.30;58.13;98517.47;6156207;23;20155;-88
2022/07/10 04:16:07;;;;;;;6.67;3.43;;;;;;;22.40;58.18;98518.13;6155895;23;20151;-88
2022/07/10 04:18:32;;;;;;;5.63;3.00;;;;;;;22.48;57.16;98523.44;6156566;23;20507;-88
2022/07/10 04:20:57;;;;;;;4.00;2.80;;;;;;;22.40;57.78;98518.13;6154732;23;20246;-88
2022/07/10 04:23:23;;;;;;;5.43;3.53;;;;;;;22.39;58.15;98526.28;6155831;23;20213;-89
2022/07/10 04:25:48;;;;;;;5.63;2.70;;;;;;;22.44;57.65;98523.94;6156505;23;20151;-89
2022/07/10 04:28:14;;;;;;;6.87;3.17;;;;;;;22.45;57.79;98521.13;6155730;23;20271;-88
2022/07/10 04:30:39;;;;;;;5.50;3.30;;;;;;;22.57;57.73;98525.09;6154989;23;20159;-87
2022/07/10 04:33:05;;;;;;;6.17;2.70;;;;;;;22.44;58.03;98527.47;6154632;23;20155;-91
2022/07/10 04:35:30;;;;;;;5.30;2.60;;;;;;;22.57;57.33;98525.09;6155833;23;20158;-87
2022/07/10 04:37:57;;;;;;;4.33;3.00;;;;;;;22.43;58.12;98527.66;6155464;23;20654;-88
2022/07/10 04:40:22;;;;;;;3.47;2.37;;;;;;;22.38;57.82;98525.47;6154905;23;20565;-87
2022/07/10 04:42:48;;;;;;;5.87;3.03;;;;;;;22.44;57.75;98524.78;6155769;23;20159;-89
2022/07/10 04:45:13;;;;;;;5.10;2.50;;;;;;;22.40;58.32;98520.81;6154667;23;20557;-87
2022/07/10 04:47:38;;;;;;;4.23;2.80;;;;;;;22.64;57.88;98518.09;6155668;23;20616;-88
2022/07/10 04:50:04;;;;;;;4.27;2.67;;;;;;;22.44;58.30;98516.78;6154988;23;20156;-88
2022/07/10 04:52:30;;;;;;;5.13;2.83;;;;;;;22.42;59.18;98515.28;6156342;23;20155;-90
2022/07/10 04:54:55;;;;;;;4.57;2.93;;;;;;;22.42;58.82;98516.13;6157681;23;20563;-88
2022/07/10 04:57:21;;;;;;;5.50;2.60;;;;;;;22.48;59.07;98517.28;6158019;23;20447;-88
2022/07/10 04:59:46;;;;;;;4.53;2.97;;;;;;;22.70;58.74;98521.06;6156491;23;20166;-87
2022/07/10 05:02:12;;;;;;;4.00;2.40;;;;;;;22.55;58.07;98521.75;6157579;23;20159;-87
2022/07/10 05:04:37;;;;;;;6.03;2.87;;;;;;;22.48;58.77;98525.28;6156463;23;20595;-87
2022/07/10 05:07:03;;;;;;;5.13;3.37;;;;;;;22.46;58.82;98520.09;6157792;23;20209;-88
2022/07/10 05:09:29;;;;;;;6.57;2.70;;;;;;;22.61;58.62;98531.75;6157592;23;20151;-88
2022/07/10 05:11:54;;;;;;;4.93;2.73;;;;;;;22.53;58.29;98529.13;6157567;23;20583;-87
2022/07/10 05:14:20;;;;;;;5.10;2.70;;;;;;;22.49;58.99;98525.09;6157657;23;20221;-89
2022/07/10 05:16:45;;;;;;;4.17;2.57;;;;;;;22.61;58.75;98530.94;6157462;23;20642;-86
2022/07/10 05:19:11;;;;;;;4.00;3.10;;;;;;;22.49;58.63;98530.44;6157844;23;20159;-90
2022/07/10 05:21:36;;;;;;;4.57;2.77;;;;;;;22.49;58.81;98527.78;6156646;23;20233;-89
2022/07/10 05:24:02;;;;;;;6.53;3.10;;;;;;;22.60;58.91;98535.44;6157747;23;20151;-90
2022/07/10 05:26:27;;;;;;;5.17;2.77;;;;;;;22.73;57.59;98542.09;6157425;23;20158;-90
2022/07/10 05:28:52;;;;;;;6.43;3.23;;;;;;;23.06;57.74;98541.00;6157612;23;20615;-90
2022/07/10 05:31:18;;;;;;;6.03;3.83;;;;;;;23.41;56.49;98540.50;6157349;23;20510;-88
2022/07/10 05:33:44;;;;;;;6.37;3.50;;;;;;;23.62;56.46;98534.53;6157340;23;20162;-90
2022/07/10 05:36:09;;;;;;;4.77;2.97;;;;;;;23.54;55.73;98535.41;6157309;23;20155;-90
2022/07/10 05:38:35;;;;;;;5.20;2.90;;;;;;;23.43;56.66;98530.47;6157292;23;20163;-88
2022/07/10 05:41:00;;;;;;;7.53;3.50;;;;;;;23.44;55.96;98536.66;6157262;23;20522;-89
2022/07/10 05:43:26;;;;;;;5.90;3.20;;;;;;;23.65;55.98;98531.50;6157165;23;20163;-90
2022/07/10 05:45:51;;;;;;;4.77;2.80;;;;;;;23.79;56.33;98526.19;6157191;23;20162;-88
2022/07/10 05:48:17;;;;;;;4.37;3.00;;;;;;;23.95;55.64;98537.81;6155880;23;20540;-89
2022/07/10 05:50:42;;;;;;;4.90;2.83;;;;;;;24.17;55.61;98531.63;6157889;23;20151;-90
2022/07/10 05:53:08;;;;;;;4.90;2.70;;;;;;;24.45;54.28;98530.00;6157172;23;20570;-89
2022/07/10 05:55:33;;;;;;;3.97;3.00;;;;;;;24.66;53.85;98532.78;6157806;23;20177;-89
2022/07/10 05:57:59;;;;;;;4.50;3.10;;;;;;;24.42;53.75;98525.03;6157795;23;20226;-89
2022/07/10 06:00:24;;;;;;;4.47;2.80;;;;;;;24.60;53.61;98522.84;6157121;23;20563;-88
2022/07/10 06:02:50;;;;;;;3.43;2.43;;;;;;;24.63;52.86;98524.31;6157409;23;20151;-87
2022/07/10 06:05:15;;;;;;;6.83;2.63;;;;;;;24.78;51.94;98536.72;6156578;23;20147;-89
2022/07/10 06:07:40;;;;;;;3.40;2.30;;;;;;;25.02;51.65;98536.44;6156947;23;20183;-88
2022/07/10 06:10:07;;;;;;;3.77;2.50;;;;;;;25.04;51.08;98537.09;6155837;23;20155;-88
2022/07/10 06:12:33;;;;;;;5.37;2.57;;;;;;;25.32;51.35;98531.84;6156147;23;20155;-86
2022/07/10 06:14:58;;;;;;;11.60;2.77;;;;;;;25.39;51.60;98540.00;6156893;23;20489;-89
2022/07/10 06:17:24;;;;;;;3.93;2.30;;;;;;;25.53;50.91;98531.06;6155750;23;20162;-88
2022/07/10 06:19:49;;;;;;;3.87;2.43;;;;;;;25.83;50.30;98529.13;6157210;23;20179;-88
2022/07/10 06:22:35;;;;;;;3.93;2.17;;;;;;;25.88;49.63;98527.53;6156865;23;20482;-89
2022/07/10 06:25:05;;;;;;;4.33;2.67;;;;;;;26.07;48.46;98526.84;6157173;23;20135;-89
2022/07/10 06:27:31;;;;;;;5.30;2.87;;;;;;;26.19;49.15;98530.75;6156628;23;20241;-89
2022/07/10 06:29:57;;;;;;;5.20;2.78;;;;;;;26.41;48.66;98525.31;6155644;23;20563;-89
2022/07/10 06:32:24;;;;;;;3.88;2.33;;;;;;;26.58;47.47;98524.81;6155897;23;20237;-89
2022/07/10 06:34:53;;;;;;;7.88;2.95;;;;;;;26.62;47.91;98534.16;6157427;23;20173;-90
2022/07/10 06:37:19;;;;;;;4.78;2.67;;;;;;;26.66;46.14;98530.03;6156575;23;20206;-90
2022/07/10 06:39:46;;;;;;;4.43;2.40;;;;;;;26.73;47.97;98530.06;6155624;23;20152;-89
2022/07/10 06:42:12;;;;;;;4.55;2.55;;;;;;;26.79;46.52;98529.31;6156635;23;20151;-90
2022/07/10 06:44:38;;;;;;;5.07;2.53;;;;;;;27.18;46.58;98531.38;6156668;23;20185;-88
2022/07/10 06:49:49;;;;;;;13.07;3.72;;;;;;;28.02;44.99;98528.13;6157000;23;20150;-89
2022/07/10 06:52:14;;;;;;;9.23;2.80;;;;;;;28.21;43.60;98536.44;6156918;23;20159;-89
2022/07/10 06:54:41;;;;;;;3.15;2.13;;;;;;;28.12;41.93;98527.72;6156892;23;20151;-90
2022/07/10 06:57:06;;;;;;;4.38;2.42;;;;;;;28.02;42.75;98535.38;6156600;23;20170;-90
2022/07/10 06:59:32;;;;;;;2.92;1.80;;;;;;;28.25;43.98;98535.00;6156841;23;20575;-90
2022/07/10 07:01:58;;;;;;;3.50;1.90;;;;;;;28.51;41.65;98533.09;6155359;23;20166;-90
2022/07/10 07:04:23;;;;;;;3.88;2.13;;;;;;;28.47;42.03;98539.13;6155262;23;20155;-90
2022/07/10 07:06:49;;;;;;;4.32;2.47;;;;;;;28.81;41.79;98532.66;6156465;23;20220;-89
2022/07/10 07:09:14;;;;;;;5.57;2.30;;;;;;;29.08;42.14;98536.97;6156365;23;20179;-90
2022/07/10 07:11:39;;;;;;;4.97;2.00;;;;;;;29.33;41.00;98534.38;6155260;23;20575;-89
2022/07/10 07:14:05;;;;;;;3.22;2.05;;;;;;;29.57;40.63;98539.06;6155199;23;20230;-90
2022/07/10 07:16:44;;;;;;;4.07;2.40;;;;;;;29.60;40.08;98533.22;6155050;23;20159;-90
2022/07/10 07:19:11;;;;;;;6.25;2.28;;;;;;;29.34;39.99;98534.19;6156304;23;20131;-88
2022/07/10 07:24:22;;;;;;;2.70;1.70;;;;;;;29.24;39.92;98533.81;6156985;23;20488;-88
2022/07/10 07:26:48;;;;;;;3.42;2.03;;;;;;;29.28;40.74;98523.41;6156228;23;20147;-89
2022/07/10 07:29:17;;;;;;;4.40;2.53;;;;;;;28.94;40.67;98527.25;6156188;23;20179;-89
2022/07/10 07:31:43;;;;;;;3.15;2.22;;;;;;;29.16;41.34;98531.31;6156999;23;20155;-90
2022/07/10 07:34:09;;;;;;;3.30;1.98;;;;;;;29.15;41.29;98529.66;6156228;23;20173;-89
2022/07/10 07:36:34;;;;;;;3.05;1.88;;;;;;;28.94;41.34;98536.16;6156498;23;20578;-88
2022/07/10 07:39:00;;;;;;;2.85;2.00;;;;;;;29.09;42.50;98531.34;6154887;23;20171;-89
2022/07/10 07:41:25;;;;;;;3.45;2.15;;;;;;;29.53;41.08;98532.44;6157155;23;20155;-89
2022/07/10 07:43:52;;;;;;;3.85;2.20;;;;;;;29.83;40.37;98534.38;6154947;23;20155;-90
2022/07/10 07:46:18;;;;;;;4.10;1.95;;;;;;;29.78;40.09;98534.19;6156366;23;20158;-89
2022/07/10 07:48:43;;;;;;;3.20;2.15;;;;;;;29.48;39.56;98529.56;6154815;23;20187;-88
2022/07/10 07:51:09;;;;;;;6.10;2.13;;;;;;;29.26;40.49;98531.72;6156357;23;20449;-88
2022/07/10 07:53:34;;;;;;;3.20;1.80;;;;;;;29.22;40.08;98530.50;6156374;23;20147;-88
2022/07/10 07:56:00;;;;;;;5.03;2.40;;;;;;;29.15;40.00;98535.91;6156031;23;20213;-89
2022/07/10 07:58:25;;;;;;;5.85;2.25;;;;;;;29.08;40.55;98529.69;6156020;23;20155;-88
2022/07/10 08:00:51;;;;;;;3.40;2.00;;;;;;;28.95;42.34;98532.44;6154834;23;20237;-87
2022/07/10 08:03:16;;;;;;;3.95;2.17;;;;;;;28.78;40.97;98533.09;6156253;23;20225;-89
2022/07/10 08:05:42;;;;;;;2.83;1.85;;;;;;;28.80;41.56;98533.72;6156628;23;20147;-89
2022/07/10 08:08:08;;;;;;;3.42;1.90;;;;;;;28.95;42.19;98531.59;6155815;23;20179;-90
2022/07/10 08:10:34;;;;;;;3.85;2.05;;;;;;;28.72;41.64;98531.25;6155994;23;20161;-88
2022/07/10 08:13:01;;;;;;;5.32;2.00;;;;;;;28.73;42.45;98536.44;6155932;23;20587;-89
2022/07/10 08:15:26;;;;;;;3.08;1.75;;;;;;;28.57;41.71;98526.88;6154766;23;20575;-88
2022/07/10 08:17:55;;;;;;;6.85;2.60;;;;;;;28.73;41.21;98530.19;6155885;23;20147;-88
2022/07/10 08:20:21;;;;;;;3.05;2.13;;;;;;;28.87;41.50;98534.53;6156471;23;20166;-88
2022/07/10 08:22:48;;;;;;;5.15;2.45;;;;;;;29.12;40.89;98530.09;6156187;23;20151;-90
2022/07/10 08:25:14;;;;;;;3.83;2.28;;;;;;;29.05;41.06;98534.69;6155088;23;20215;-90
2022/07/10 08:27:40;;;;;;;4.22;2.00;;;;;;;29.14;41.33;98534.22;6156587;23;20623;-89
2022/07/10 08:30:08;;;;;;;4.07;2.33;;;;;;;29.03;40.52;98537.59;6157868;23;20567;-89
2022/07/10 08:32:34;;;;;;;4.53;2.53;;;;;;;29.32;41.91;98530.88;6157869;23;20222;-89
2022/07/10 08:35:00;;;;;;;8.25;2.13;;;;;;;29.34;40.73;98538.75;6157866;23;20583;-89
2022/07/10 08:37:25;;;;;;;3.65;2.05;;;;;;;29.50;40.29;98533.69;6157656;23;20151;-89
2022/07/10 08:39:51;;;;;;;3.38;1.98;;;;;;;29.91;39.84;98532.44;6157820;23;20139;-90
2022/07/10 08:42:18;;;;;;;3.90;2.22;;;;;;;29.90;40.72;98528.91;6158461;23;20175;-89
2022/07/10 08:44:43;;;;;;;5.25;2.28;;;;;;;29.77;39.92;98524.38;6156598;23;20210;-89
2022/07/10 08:47:11;;;;;;;4.05;1.67;;;;;;;29.65;40.92;98536.94;6156432;23;20239;-90
2022/07/10 08:49:37;;;;;;;4.85;2.20;;;;;;;29.79;40.40;98537.72;6157682;23;20147;-90
2022/07/10 08:52:13;;;;;;;4.63;2.03;;;;;;;29.82;39.33;98527.28;6157718;23;20154;-90
2022/07/10 08:54:38;;;;;;;3.25;1.90;;;;;;;29.89;39.49;98531.84;6156664;23;20147;-89
2022/07/10 08:57:05;;;;;;;4.72;2.40;;;;;;;29.92;39.07;98526.00;6157962;23;20163;-89
2022/07/10 08:59:31;;;;;;;2.80;1.73;;;;;;;29.90;38.55;98533.50;6157555;23;20151;-89
2022/07/10 09:01:57;;;;;;;3.42;1.90;;;;;;;29.82;39.08;98531.88;6157542;23;20175;-89
2022/07/10 09:04:25;;;;;;;3.30;1.60;;;;;;;29.92;40.09;98531.41;6157851;23;20154;-88
2022/07/10 09:06:52;;;;;;;3.70;2.10;;;;;;;30.19;39.58;98516.66;6156317;23;20242;-89
2022/07/10 09:09:17;;;;;;;3.22;2.15;;;;;;;30.28;38.06;98520.72;6156239;23;20238;-90
2022/07/10 09:11:43;;;;;;;3.42;1.88;;;;;;;30.42;38.26;98527.72;6157823;23;20151;-89
2022/07/10 09:14:15;;;;;;;4.35;2.20;;;;;;;30.23;38.30;98525.97;6157497;23;20486;-92
2022/07/10 09:16:45;;;;;;;3.55;1.98;;;;;;;29.93;38.29;98535.78;6158110;23;20155;-89
2022/07/10 09:19:17;;;;;;;3.13;2.05;;;;;;;29.81;39.45;98528.34;6157812;23;20135;-90
2022/07/10 09:21:44;;;;;;;3.65;2.03;;;;;;;30.03;38.73;98525.28;6157370;23;20151;-89
2022/07/10 09:24:10;;;;;;;3.88;1.90;;;;;;;30.35;38.52;98518.78;6158024;23;20589;-89
2022/07/10 09:26:36;;;;;;;3.35;1.83;;;;;;;30.50;38.31;98519.31;6157687;23;20242;-89
2022/07/10 09:29:08;;;;;;;3.88;2.10;;;;;;;30.47;38.85;98519.75;6157636;23;20199;-89
2022/07/10 09:31:53;;;;;;;2.97;2.00;;;;;;;30.37;38.95;98509.41;6158022;23;20189;-90
2022/07/10 09:34:41;;;;;;;3.28;2.00;;;;;;;30.11;38.62;98523.13;6157682;23;20239;-91
2022/07/10 09:37:19;;;;;;;2.00;1.38;;;;;;;29.91;38.91;98535.97;6156192;23;20162;-90
2022/07/10 09:39:55;;;;;;;3.80;2.05;;;;;;;30.08;39.29;98523.59;6157914;23;20135;-90
2022/07/10 09:42:34;;;;;;;3.45;2.13;;;;;;;30.30;38.60;98516.75;6157674;23;20198;-90
2022/07/10 09:45:18;;;;;;;3.42;1.83;;;;;;;30.55;38.43;98518.63;6157268;23;20154;-90
2022/07/10 09:48:04;;;;;;;5.63;3.25;;;;;;;30.59;38.37;98523.38;6157794;23;20178;-89
2022/07/10 09:50:34;;;;;;;6.78;2.80;;;;;;;30.73;37.50;98508.66;6157023;23;20177;-88
2022/07/10 09:53:01;;;;;;;2.92;1.83;;;;;;;30.86;38.38;98524.75;6157791;23;20210;-89
2022/07/10 09:55:32;;;;;;;3.67;1.77;;;;;;;30.85;37.00;98511.44;6157154;23;20592;-89
2022/07/10 09:58:04;;;;;;;2.35;1.40;;;;;;;30.52;38.10;98510.97;6157231;23;20138;-89
2022/07/10 10:00:37;;;;;;;6.95;1.77;;;;;;;30.43;37.43;98513.13;6157770;23;20469;-89
2022/07/10 10:03:06;;;;;;;3.90;2.00;;;;;;;30.69;38.23;98507.44;6157175;23;20171;-89
2022/07/10 10:05:36;;;;;;;2.97;1.80;;;;;;;30.65;37.88;98505.41;6157002;23;20158;-90
2022/07/10 10:08:10;;;;;;;5.65;2.13;;;;;;;30.79;38.62;98509.66;6157261;23;20174;-90
2022/07/10 10:10:37;;;;;;;2.60;1.75;;;;;;;30.55;38.41;98511.34;6157413;23;20159;-90
2022/07/10 10:13:09;;;;;;;3.20;1.65;;;;;;;30.35;38.83;98522.34;6156922;23;20210;-88
2022/07/10 10:15:35;;;;;;;5.03;1.50;;;;;;;30.20;38.99;98518.28;6157629;23;20202;-88
2022/07/10 10:18:02;;;;;;;3.33;1.95;;;;;;;29.94;38.44;98523.91;6156844;23;20154;-90
2022/07/10 10:20:41;;;;;;;3.00;2.10;;;;;;;30.07;38.93;98526.50;6157289;23;20160;-91
2022/07/10 10:23:15;;;;;;;3.42;1.90;;;;;;;30.19;39.04;98517.44;6157250;23;20431;-88
2022/07/10 10:25:41;;;;;;;5.65;2.80;;;;;;;30.10;39.66;98512.56;6157556;23;20147;-90
2022/07/10 10:28:09;;;;;;;4.25;1.70;;;;;;;30.02;39.80;98523.63;6157028;23;20175;-91
2022/07/10 10:30:39;;;;;;;3.03;1.80;;;;;;;29.89;39.65;98529.13;6156753;23;20247;-91
2022/07/10 10:33:34;;;;;;;2.65;1.67;;;;;;;29.90;39.04;98525.41;6155564;23;20650;-89
2022/07/10 10:36:01;;;;;;;2.50;1.75;;;;;;;30.08;40.21;98530.88;6146946;23;20163;-92
2022/07/10 10:38:46;;;;;;;2.97;1.83;;;;;;;29.92;38.86;98523.28;6156950;23;20191;-91
2022/07/10 10:41:36;;;;;;;6.75;2.22;;;;;;;29.55;40.10;98528.47;6156679;23;20154;-88
2022/07/10 10:44:08;;;;;;;2.70;1.58;;;;;;;29.85;40.29;98520.63;6155557;23;20158;-88
2022/07/10 10:46:57;;;;;;;3.00;1.73;;;;;;;29.86;39.27;98521.44;6156612;23;20586;-91
2022/07/10 10:49:24;;;;;;;3.40;2.08;;;;;;;30.01;38.17;98522.78;6156818;23;20183;-90
2022/07/10 10:52:06;;;;;;;1.85;1.08;;;;;;;30.21;38.24;98514.53;6156334;23;20227;-90
2022/07/10 10:54:57;;;;;;;3.08;1.50;;;;;;;30.33;38.14;98515.47;6156529;23;20209;-90
2022/07/10 10:57:36;;;;;;;3.95;2.35;;;;;;;30.56;38.40;98515.69;6156441;23;20205;-90
2022/07/10 11:00:07;;;;;;;3.35;1.55;;;;;;;30.64;37.02;98503.75;6157186;23;20135;-89
2022/07/10 11:02:40;;;;;;;4.78;1.77;;;;;;;31.02;38.47;98513.38;6157522;23;20138;-89
2022/07/10 11:05:17;;;;;;;4.30;1.83;;;;;;;31.64;37.65;98505.91;6156526;23;20163;-88
2022/07/10 11:07:53;;;;;;;2.20;1.70;;;;;;;31.58;35.49;98504.13;6156193;23;20173;-88
2022/07/10 11:10:48;;;;;;;2.65;1.40;;;;;;;31.36;35.59;98508.38;6155191;23;20601;-90
2022/07/10 11:13:14;;;;;;;2.30;1.45;;;;;;;31.55;35.42;98504.59;6156371;23;20132;-89
2022/07/10 11:15:44;;;;;;;3.25;1.40;;;;;;;31.49;36.37;98503.63;6156019;23;20513;-90
2022/07/10 11:18:18;;;;;;;4.93;2.05;;;;;;;31.36;35.51;98509.19;6156002;23;20171;-88
2022/07/10 11:20:48;;;;;;;2.97;1.60;;;;;;;31.35;36.16;98509.41;6156115;23;20555;-91
2022/07/10 11:23:48;;;;;;;2.72;1.55;;;;;;;31.17;34.95;98504.03;6156301;23;20150;-89
2022/07/10 11:26:31;;;;;;;5.40;2.55;;;;;;;31.13;35.49;98498.25;6155091;23;20151;-89
2022/07/10 11:29:05;;;;;;;28.35;10.60;;;;;;;30.96;36.24;98498.03;6157183;23;20198;-89
2022/07/10 11:31:34;;;;;;;23.10;8.25;;;;;;;31.02;36.56;98499.84;6156648;23;20191;-90
2022/07/10 11:33:59;;;;;;;8.35;3.35;;;;;;;31.12;36.67;98501.16;6156534;23;20207;-88
2022/07/10 11:36:29;;;;;;;3.20;1.90;;;;;;;31.40;35.58;98493.28;6157152;23;20175;-88
2022/07/10 11:39:04;;;;;;;2.88;1.48;;;;;;;31.34;36.74;98494.22;6155981;23;20163;-89
2022/07/10 11:41:30;;;;;;;3.17;1.60;;;;;;;31.65;35.08;98493.19;6156551;23;20242;-90
2022/07/10 11:44:03;;;;;;;3.05;1.60;;;;;;;31.81;34.88;98492.53;6156453;23;20586;-88